sensor_id;sensor_type;location;lat;lon;timestamp;pressure;altitude;pressure_sealevel;temperature;humidity
69058;BME280;56128;37.534;-122.308;2022-07-03T00:02:09;101444.13;;;17.88;64.45
69058;BME280;56128;37.534;-122.308;2022-07-03T00:04:35;101454.09;;;17.87;64.76
69058;BME280;56128;37.534;-122.308;2022-07-03T00:07:02;101454.78;;;17.89;65.07
69058;BME280;56128;37.534;-122.308;2022-07-03T00:09:28;101442.50;;;17.57;65.26
69058;BME280;56128;37.534;-122.308;2022-07-03T00:11:54;101457.44;;;17.61;65.61
69058;BME280;56128;37.534;-122.308;2022-07-03T00:14:20;101438.53;;;17.42;66.49
69058;BME280;56128;37.534;-122.308;2022-07-03T00:16:46;101449.41;;;17.22;67.03
69058;BME280;56128;37.534;-122.308;2022-07-03T00:19:12;101460.22;;;17.32;67.35
69058;BME280;56128;37.534;-122.308;2022-07-03T00:21:45;101444.25;;;17.29;67.24
69058;BME280;56128;37.534;-122.308;2022-07-03T00:24:25;101436.03;;;17.20;67.57
69058;BME280;56128;37.534;-122.308;2022-07-03T00:26:53;101438.31;;;17.06;68.12
69058;BME280;56128;37.534;-122.308;2022-07-03T00:29:21;101441.19;;;16.94;68.63
69058;BME280;56128;37.534;-122.308;2022-07-03T00:31:49;101444.56;;;17.06;68.34
69058;BME280;56128;37.534;-122.308;2022-07-03T00:34:17;101442.28;;;17.11;68.62
69058;BME280;56128;37.534;-122.308;2022-07-03T00:36:46;101430.63;;;17.11;68.21
69058;BME280;56128;37.534;-122.308;2022-07-03T00:39:13;101430.91;;;17.17;68.37
69058;BME280;56128;37.534;-122.308;2022-07-03T00:41:40;101424.66;;;17.07;68.18
69058;BME280;56128;37.534;-122.308;2022-07-03T00:44:07;101436.63;;;17.04;68.26
69058;BME280;56128;37.534;-122.308;2022-07-03T00:46:37;101430.91;;;16.88;68.93
69058;BME280;56128;37.534;-122.308;2022-07-03T00:49:06;101429.19;;;16.77;69.59
69058;BME280;56128;37.534;-122.308;2022-07-03T00:51:38;101434.88;;;16.84;69.45
69058;BME280;56128;37.534;-122.308;2022-07-03T00:54:07;101421.75;;;16.50;70.13
69058;BME280;56128;37.534;-122.308;2022-07-03T00:56:35;101434.69;;;16.46;70.14
69058;BME280;56128;37.534;-122.308;2022-07-03T00:59:03;101435.13;;;16.42;70.54
69058;BME280;56128;37.534;-122.308;2022-07-03T01:01:32;101424.56;;;16.38;70.76
69058;BME280;56128;37.534;-122.308;2022-07-03T01:06:43;101428.56;;;16.34;71.41
69058;BME280;56128;37.534;-122.308;2022-07-03T01:09:12;101418.31;;;16.28;71.21
69058;BME280;56128;37.534;-122.308;2022-07-03T01:11:48;101423.72;;;16.28;71.75
69058;BME280;56128;37.534;-122.308;2022-07-03T01:16:58;101427.53;;;16.26;71.75
69058;BME280;56128;37.534;-122.308;2022-07-03T01:19:42;101421.41;;;16.23;71.45
69058;BME280;56128;37.534;-122.308;2022-07-03T01:22:35;101412.59;;;16.12;72.23
69058;BME280;56128;37.534;-122.308;2022-07-03T01:28:17;101425.63;;;16.06;72.61
69058;BME280;56128;37.534;-122.308;2022-07-03T01:30:49;101424.06;;;16.04;72.80
69058;BME280;56128;37.534;-122.308;2022-07-03T01:36:06;101428.00;;;15.90;73.31
69058;BME280;56128;37.534;-122.308;2022-07-03T01:38:35;101436.09;;;15.90;73.33
69058;BME280;56128;37.534;-122.308;2022-07-03T01:41:04;101431.34;;;15.82;73.52
69058;BME280;56128;37.534;-122.308;2022-07-03T01:43:33;101437.13;;;15.78;73.95
69058;BME280;56128;37.534;-122.308;2022-07-03T01:46:01;101431.00;;;15.75;73.74
69058;BME280;56128;37.534;-122.308;2022-07-03T01:48:29;101432.38;;;15.60;74.43
69058;BME280;56128;37.534;-122.308;2022-07-03T01:50:56;101431.91;;;15.55;74.72
69058;BME280;56128;37.534;-122.308;2022-07-03T01:53:28;101429.53;;;15.40;74.77
69058;BME280;56128;37.534;-122.308;2022-07-03T01:55:56;101429.69;;;15.39;74.89
69058;BME280;56128;37.534;-122.308;2022-07-03T01:58:26;101423.03;;;15.22;75.88
69058;BME280;56128;37.534;-122.308;2022-07-03T02:01:08;101422.19;;;15.21;76.14
69058;BME280;56128;37.534;-122.308;2022-07-03T02:03:41;101420.09;;;15.25;76.29
69058;BME280;56128;37.534;-122.308;2022-07-03T02:06:33;101429.16;;;15.24;76.36
69058;BME280;56128;37.534;-122.308;2022-07-03T02:09:07;101429.69;;;15.18;76.55
69058;BME280;56128;37.534;-122.308;2022-07-03T02:11:40;101417.69;;;15.10;76.23
69058;BME280;56128;37.534;-122.308;2022-07-03T02:14:18;101427.38;;;15.13;76.21
69058;BME280;56128;37.534;-122.308;2022-07-03T02:17:07;101430.00;;;15.03;77.05
69058;BME280;56128;37.534;-122.308;2022-07-03T02:22:51;101437.78;;;14.85;77.21
69058;BME280;56128;37.534;-122.308;2022-07-03T02:25:28;101435.47;;;14.81;77.50
69058;BME280;56128;37.534;-122.308;2022-07-03T02:30:29;101429.88;;;14.72;78.29
69058;BME280;56128;37.534;-122.308;2022-07-03T02:32:59;101424.50;;;14.72;78.00
69058;BME280;56128;37.534;-122.308;2022-07-03T02:35:31;101423.91;;;14.69;77.78
69058;BME280;56128;37.534;-122.308;2022-07-03T02:38:10;101422.19;;;14.68;78.71
69058;BME280;56128;37.534;-122.308;2022-07-03T02:40:45;101435.41;;;14.71;78.30
69058;BME280;56128;37.534;-122.308;2022-07-03T02:44:04;101430.59;;;14.63;78.55
69058;BME280;56128;37.534;-122.308;2022-07-03T02:46:49;101437.09;;;14.60;78.71
69058;BME280;56128;37.534;-122.308;2022-07-03T02:49:43;101440.91;;;14.58;79.40
69058;BME280;56128;37.534;-122.308;2022-07-03T02:52:14;101437.50;;;14.56;79.43
69058;BME280;56128;37.534;-122.308;2022-07-03T02:54:47;101444.84;;;14.54;79.49
69058;BME280;56128;37.534;-122.308;2022-07-03T02:57:17;101439.47;;;14.54;79.98
69058;BME280;56128;37.534;-122.308;2022-07-03T02:59:45;101449.38;;;14.53;79.75
69058;BME280;56128;37.534;-122.308;2022-07-03T03:04:58;101438.97;;;14.49;78.87
69058;BME280;56128;37.534;-122.308;2022-07-03T03:07:34;101443.53;;;14.48;78.86
69058;BME280;56128;37.534;-122.308;2022-07-03T03:10:00;101448.91;;;14.48;79.47
69058;BME280;56128;37.534;-122.308;2022-07-03T03:12:37;101445.47;;;14.46;79.40
69058;BME280;56128;37.534;-122.308;2022-07-03T03:15:08;101442.03;;;14.44;79.60
69058;BME280;56128;37.534;-122.308;2022-07-03T03:17:42;101451.09;;;14.43;79.61
69058;BME280;56128;37.534;-122.308;2022-07-03T03:20:13;101431.44;;;14.31;79.39
69058;BME280;56128;37.534;-122.308;2022-07-03T03:23:29;101434.13;;;14.31;79.11
69058;BME280;56128;37.534;-122.308;2022-07-03T03:25:57;101435.34;;;14.27;79.35
69058;BME280;56128;37.534;-122.308;2022-07-03T03:28:25;101421.66;;;14.19;79.15
69058;BME280;56128;37.534;-122.308;2022-07-03T03:30:51;101438.75;;;14.29;79.11
69058;BME280;56128;37.534;-122.308;2022-07-03T03:33:17;101435.09;;;14.30;79.05
69058;BME280;56128;37.534;-122.308;2022-07-03T03:35:44;101437.19;;;14.26;78.90
69058;BME280;56128;37.534;-122.308;2022-07-03T03:38:12;101433.78;;;14.24;79.18
69058;BME280;56128;37.534;-122.308;2022-07-03T03:40:38;101433.88;;;14.23;79.08
69058;BME280;56128;37.534;-122.308;2022-07-03T03:43:04;101430.22;;;14.24;79.13
69058;BME280;56128;37.534;-122.308;2022-07-03T03:45:30;101437.19;;;14.26;79.44
69058;BME280;56128;37.534;-122.308;2022-07-03T03:47:57;101435.59;;;14.24;79.33
69058;BME280;56128;37.534;-122.308;2022-07-03T03:50:23;101437.56;;;14.22;79.12
69058;BME280;56128;37.534;-122.308;2022-07-03T03:52:50;101439.53;;;14.20;79.21
69058;BME280;56128;37.534;-122.308;2022-07-03T03:55:16;101442.44;;;14.17;79.20
69058;BME280;56128;37.534;-122.308;2022-07-03T03:57:42;101452.13;;;14.19;80.02
69058;BME280;56128;37.534;-122.308;2022-07-03T04:00:08;101455.66;;;14.20;79.24
69058;BME280;56128;37.534;-122.308;2022-07-03T04:02:35;101442.56;;;14.15;79.51
69058;BME280;56128;37.534;-122.308;2022-07-03T04:05:01;101441.72;;;14.15;79.31
69058;BME280;56128;37.534;-122.308;2022-07-03T04:07:27;101454.22;;;14.16;79.06
69058;BME280;56128;37.534;-122.308;2022-07-03T04:09:53;101462.38;;;14.14;79.84
69058;BME280;56128;37.534;-122.308;2022-07-03T04:12:19;101456.28;;;14.12;79.77
69058;BME280;56128;37.534;-122.308;2022-07-03T04:14:45;101460.81;;;14.11;79.47
69058;BME280;56128;37.534;-122.308;2022-07-03T04:17:11;101463.88;;;14.07;79.96
69058;BME280;56128;37.534;-122.308;2022-07-03T04:19:38;101474.25;;;14.11;80.34
69058;BME280;56128;37.534;-122.308;2022-07-03T04:22:04;101474.38;;;14.10;80.43
69058;BME280;56128;37.534;-122.308;2022-07-03T04:24:35;101471.56;;;14.11;79.79
69058;BME280;56128;37.534;-122.308;2022-07-03T04:27:01;101467.41;;;14.07;80.17
69058;BME280;56128;37.534;-122.308;2022-07-03T04:29:28;101481.63;;;14.09;80.06
69058;BME280;56128;37.534;-122.308;2022-07-03T04:31:54;101477.44;;;14.05;80.42
69058;BME280;56128;37.534;-122.308;2022-07-03T04:34:20;101483.09;;;14.02;80.29
69058;BME280;56128;37.534;-122.308;2022-07-03T04:36:47;101486.50;;;14.04;80.07
69058;BME280;56128;37.534;-122.308;2022-07-03T04:39:13;101490.19;;;14.03;80.25
69058;BME280;56128;37.534;-122.308;2022-07-03T04:41:39;101477.22;;;13.97;79.92
69058;BME280;56128;37.534;-122.308;2022-07-03T04:44:05;101483.44;;;13.98;80.17
69058;BME280;56128;37.534;-122.308;2022-07-03T04:46:31;101488.94;;;13.96;80.08
69058;BME280;56128;37.534;-122.308;2022-07-03T04:48:57;101483.69;;;13.94;79.97
69058;BME280;56128;37.534;-122.308;2022-07-03T04:51:23;101489.06;;;13.94;80.06
69058;BME280;56128;37.534;-122.308;2022-07-03T04:53:50;101490.19;;;13.92;80.33
69058;BME280;56128;37.534;-122.308;2022-07-03T04:56:16;101495.56;;;13.92;80.12
69058;BME280;56128;37.534;-122.308;2022-07-03T04:58:42;101485.75;;;13.91;80.31
69058;BME280;56128;37.534;-122.308;2022-07-03T05:01:08;101488.19;;;13.94;80.23
69058;BME280;56128;37.534;-122.308;2022-07-03T05:03:34;101496.53;;;13.91;80.19
69058;BME280;56128;37.534;-122.308;2022-07-03T05:06:00;101494.47;;;13.94;80.64
69058;BME280;56128;37.534;-122.308;2022-07-03T05:08:27;101489.56;;;13.88;80.27
69058;BME280;56128;37.534;-122.308;2022-07-03T05:10:53;101482.47;;;13.87;80.52
69058;BME280;56128;37.534;-122.308;2022-07-03T05:13:19;101477.81;;;13.89;80.11
69058;BME280;56128;37.534;-122.308;2022-07-03T05:15:45;101486.75;;;13.90;80.72
69058;BME280;56128;37.534;-122.308;2022-07-03T05:18:11;101496.66;;;13.89;80.49
69058;BME280;56128;37.534;-122.308;2022-07-03T05:20:38;101478.78;;;13.88;80.08
69058;BME280;56128;37.534;-122.308;2022-07-03T05:23:04;101484.06;;;13.90;80.57
69058;BME280;56128;37.534;-122.308;2022-07-03T05:25:31;101489.56;;;13.88;80.07
69058;BME280;56128;37.534;-122.308;2022-07-03T05:27:58;101493.97;;;13.89;80.27
69058;BME280;56128;37.534;-122.308;2022-07-03T05:30:25;101493.22;;;13.87;80.14
69058;BME280;56128;37.534;-122.308;2022-07-03T05:32:53;101490.66;;;13.86;80.01
69058;BME280;56128;37.534;-122.308;2022-07-03T05:35:19;101490.66;;;13.86;80.13
69058;BME280;56128;37.534;-122.308;2022-07-03T05:37:46;101509.84;;;13.81;80.35
69058;BME280;56128;37.534;-122.308;2022-07-03T05:40:12;101499.81;;;13.83;80.22
69058;BME280;56128;37.534;-122.308;2022-07-03T05:42:38;101508.25;;;13.78;80.17
69058;BME280;56128;37.534;-122.308;2022-07-03T05:45:08;101510.72;;;13.82;80.37
69058;BME280;56128;37.534;-122.308;2022-07-03T05:47:35;101501.66;;;13.83;79.80
69058;BME280;56128;37.534;-122.308;2022-07-03T05:50:01;101496.53;;;13.79;80.18
69058;BME280;56128;37.534;-122.308;2022-07-03T05:52:27;101497.97;;;13.72;80.46
69058;BME280;56128;37.534;-122.308;2022-07-03T05:54:53;101501.75;;;13.70;80.37
69058;BME280;56128;37.534;-122.308;2022-07-03T05:57:19;101506.03;;;13.72;80.37
69058;BME280;56128;37.534;-122.308;2022-07-03T05:59:47;101498.09;;;13.71;80.45
69058;BME280;56128;37.534;-122.308;2022-07-03T06:02:13;101491.97;;;13.69;80.75
69058;BME280;56128;37.534;-122.308;2022-07-03T06:04:40;101507.75;;;13.73;80.61
69058;BME280;56128;37.534;-122.308;2022-07-03T06:07:06;101505.06;;;13.73;80.11
69058;BME280;56128;37.534;-122.308;2022-07-03T06:09:32;101496.63;;;13.67;80.03
69058;BME280;56128;37.534;-122.308;2022-07-03T06:11:58;101508.34;;;13.66;80.48
69058;BME280;56128;37.534;-122.308;2022-07-03T06:14:24;101504.91;;;13.63;80.38
69058;BME280;56128;37.534;-122.308;2022-07-03T06:16:50;101510.41;;;13.62;80.48
69058;BME280;56128;37.534;-122.308;2022-07-03T06:19:16;101510.63;;;13.59;80.69
69058;BME280;56128;37.534;-122.308;2022-07-03T06:21:43;101508.69;;;13.61;80.92
69058;BME280;56128;37.534;-122.308;2022-07-03T06:24:10;101494.63;;;13.57;80.37
69058;BME280;56128;37.534;-122.308;2022-07-03T06:26:36;101506.97;;;13.60;80.48
69058;BME280;56128;37.534;-122.308;2022-07-03T06:29:02;101507.72;;;13.62;80.30
69058;BME280;56128;37.534;-122.308;2022-07-03T06:31:29;101508.81;;;13.59;80.37
69058;BME280;56128;37.534;-122.308;2022-07-03T06:33:56;101503.78;;;13.55;80.72
69058;BME280;56128;37.534;-122.308;2022-07-03T06:36:22;101513.59;;;13.56;80.17
69058;BME280;56128;37.534;-122.308;2022-07-03T06:38:48;101509.44;;;13.52;80.14
69058;BME280;56128;37.534;-122.308;2022-07-03T06:41:14;101496.06;;;13.50;80.39
69058;BME280;56128;37.534;-122.308;2022-07-03T06:43:40;101497.56;;;13.54;80.56
69058;BME280;56128;37.534;-122.308;2022-07-03T06:46:06;101497.91;;;13.50;80.23
69058;BME280;56128;37.534;-122.308;2022-07-03T06:48:32;101510.25;;;13.52;80.36
69058;BME280;56128;37.534;-122.308;2022-07-03T06:50:58;101505.84;;;13.51;80.65
69058;BME280;56128;37.534;-122.308;2022-07-03T06:53:25;101501.44;;;13.50;80.61
69058;BME280;56128;37.534;-122.308;2022-07-03T06:55:51;101512.34;;;13.48;80.74
69058;BME280;56128;37.534;-122.308;2022-07-03T06:58:17;101518.47;;;13.51;81.12
69058;BME280;56128;37.534;-122.308;2022-07-03T07:00:43;101507.94;;;13.47;81.25
69058;BME280;56128;37.534;-122.308;2022-07-03T07:03:09;101509.63;;;13.48;81.14
69058;BME280;56128;37.534;-122.308;2022-07-03T07:05:35;101509.63;;;13.48;81.29
69058;BME280;56128;37.534;-122.308;2022-07-03T07:08:02;101503.41;;;13.48;81.33
69058;BME280;56128;37.534;-122.308;2022-07-03T07:10:28;101499.75;;;13.49;81.16
69058;BME280;56128;37.534;-122.308;2022-07-03T07:12:54;101498.88;;;13.48;81.46
69058;BME280;56128;37.534;-122.308;2022-07-03T07:15:20;101505.97;;;13.50;81.36
69058;BME280;56128;37.534;-122.308;2022-07-03T07:17:47;101495.69;;;13.43;81.39
69058;BME280;56128;37.534;-122.308;2022-07-03T07:20:13;101509.88;;;13.45;81.39
69058;BME280;56128;37.534;-122.308;2022-07-03T07:22:39;101505.34;;;13.46;81.79
69058;BME280;56128;37.534;-122.308;2022-07-03T07:25:05;101502.03;;;13.42;81.70
69058;BME280;56128;37.534;-122.308;2022-07-03T07:27:31;101498.25;;;13.45;81.69
69058;BME280;56128;37.534;-122.308;2022-07-03T07:29:57;101501.81;;;13.45;81.42
69058;BME280;56128;37.534;-122.308;2022-07-03T07:32:24;101497.41;;;13.44;81.41
69058;BME280;56128;37.534;-122.308;2022-07-03T07:34:50;101493.25;;;13.40;81.42
69058;BME280;56128;37.534;-122.308;2022-07-03T07:37:16;101492.03;;;13.44;81.58
69058;BME280;56128;37.534;-122.308;2022-07-03T07:39:42;101484.31;;;13.40;81.31
69058;BME280;56128;37.534;-122.308;2022-07-03T07:42:08;101480.97;;;13.36;81.09
69058;BME280;56128;37.534;-122.308;2022-07-03T07:44:34;101482.72;;;13.37;81.05
69058;BME280;56128;37.534;-122.308;2022-07-03T07:47:00;101487.13;;;13.38;81.18
69058;BME280;56128;37.534;-122.308;2022-07-03T07:49:26;101485.50;;;13.36;81.11
69058;BME280;56128;37.534;-122.308;2022-07-03T07:51:53;101476.59;;;13.35;81.27
69058;BME280;56128;37.534;-122.308;2022-07-03T07:54:19;101479.75;;;13.29;81.27
69058;BME280;56128;37.534;-122.308;2022-07-03T07:56:45;101473.38;;;13.30;80.97
69058;BME280;56128;37.534;-122.308;2022-07-03T07:59:11;101472.88;;;13.25;81.37
69058;BME280;56128;37.534;-122.308;2022-07-03T08:01:37;101486.44;;;13.23;81.64
69058;BME280;56128;37.534;-122.308;2022-07-03T08:04:21;101472.38;;;13.20;81.54
69058;BME280;56128;37.534;-122.308;2022-07-03T08:07:05;101478.16;;;13.26;81.58
69058;BME280;56128;37.534;-122.308;2022-07-03T08:09:32;101480.09;;;13.24;81.68
69058;BME280;56128;37.534;-122.308;2022-07-03T08:11:58;101476.66;;;13.22;81.73
69058;BME280;56128;37.534;-122.308;2022-07-03T08:14:24;101478.38;;;13.23;81.75
69058;BME280;56128;37.534;-122.308;2022-07-03T08:16:50;101475.81;;;13.22;81.89
69058;BME280;56128;37.534;-122.308;2022-07-03T08:19:16;101477.63;;;13.21;82.02
69058;BME280;56128;37.534;-122.308;2022-07-03T08:21:43;101473.25;;;13.20;81.94
69058;BME280;56128;37.534;-122.308;2022-07-03T08:24:09;101471.75;;;13.16;82.38
69058;BME280;56128;37.534;-122.308;2022-07-03T08:26:37;101467.25;;;13.17;82.48
69058;BME280;56128;37.534;-122.308;2022-07-03T08:29:03;101472.50;;;13.18;82.76
69058;BME280;56128;37.534;-122.308;2022-07-03T08:31:30;101479.81;;;13.16;83.24
69058;BME280;56128;37.534;-122.308;2022-07-03T08:33:56;101482.63;;;13.14;83.38
69058;BME280;56128;37.534;-122.308;2022-07-03T08:36:22;101476.50;;;13.12;83.79
69058;BME280;56128;37.534;-122.308;2022-07-03T08:38:48;101472.00;;;13.13;83.70
69058;BME280;56128;37.534;-122.308;2022-07-03T08:41:15;101479.19;;;13.12;83.80
69058;BME280;56128;37.534;-122.308;2022-07-03T08:43:42;101470.28;;;13.12;84.58
69058;BME280;56128;37.534;-122.308;2022-07-03T08:46:10;101485.78;;;13.08;85.64
69058;BME280;56128;37.534;-122.308;2022-07-03T08:48:37;101480.53;;;13.07;86.03
69058;BME280;56128;37.534;-122.308;2022-07-03T08:51:03;101479.78;;;13.05;87.06
69058;BME280;56128;37.534;-122.308;2022-07-03T08:53:30;101486.34;;;13.01;87.48
69058;BME280;56128;37.534;-122.308;2022-07-03T08:55:56;101486.69;;;12.96;88.10
69058;BME280;56128;37.534;-122.308;2022-07-03T08:58:23;101490.59;;;12.92;90.09
69058;BME280;56128;37.534;-122.308;2022-07-03T09:00:50;101485.47;;;12.89;90.24
69058;BME280;56128;37.534;-122.308;2022-07-03T09:03:17;101485.56;;;12.87;91.01
69058;BME280;56128;37.534;-122.308;2022-07-03T09:05:46;101479.03;;;12.78;91.03
69058;BME280;56128;37.534;-122.308;2022-07-03T09:08:15;101491.09;;;12.73;90.76
69058;BME280;56128;37.534;-122.308;2022-07-03T09:10:44;101487.78;;;12.69;90.84
69058;BME280;56128;37.534;-122.308;2022-07-03T09:13:11;101479.84;;;12.68;90.39
69058;BME280;56128;37.534;-122.308;2022-07-03T09:15:37;101476.41;;;12.65;90.69
69058;BME280;56128;37.534;-122.308;2022-07-03T09:18:05;101465.03;;;12.62;91.16
69058;BME280;56128;37.534;-122.308;2022-07-03T09:20:37;101476.53;;;12.64;91.24
69058;BME280;56128;37.534;-122.308;2022-07-03T09:25:56;101467.09;;;12.58;91.14
69058;BME280;56128;37.534;-122.308;2022-07-03T09:28:24;101465.16;;;12.60;91.47
69058;BME280;56128;37.534;-122.308;2022-07-03T09:30:58;101476.84;;;12.59;90.72
69058;BME280;56128;37.534;-122.308;2022-07-03T09:33:25;101473.22;;;12.60;90.06
69058;BME280;56128;37.534;-122.308;2022-07-03T09:35:55;101467.72;;;12.62;90.12
69058;BME280;56128;37.534;-122.308;2022-07-03T09:38:22;101475.00;;;12.60;89.61
69058;BME280;56128;37.534;-122.308;2022-07-03T09:40:50;101481.16;;;12.62;89.61
69058;BME280;56128;37.534;-122.308;2022-07-03T09:43:30;101472.25;;;12.61;89.40
69058;BME280;56128;37.534;-122.308;2022-07-03T09:45:59;101472.13;;;12.63;89.66
69058;BME280;56128;37.534;-122.308;2022-07-03T09:48:29;101468.59;;;12.62;89.85
69058;BME280;56128;37.534;-122.308;2022-07-03T09:51:16;101464.28;;;12.60;90.57
69058;BME280;56128;37.534;-122.308;2022-07-03T09:56:12;101471.50;;;12.59;90.09
69058;BME280;56128;37.534;-122.308;2022-07-03T09:58:39;101463.44;;;12.59;90.33
69058;BME280;56128;37.534;-122.308;2022-07-03T10:01:20;101456.59;;;12.55;90.89
69058;BME280;56128;37.534;-122.308;2022-07-03T10:03:48;101455.72;;;12.55;90.53
69058;BME280;56128;37.534;-122.308;2022-07-03T10:06:14;101456.34;;;12.58;90.96
69058;BME280;56128;37.534;-122.308;2022-07-03T10:08:42;101453.78;;;12.57;91.57
69058;BME280;56128;37.534;-122.308;2022-07-03T10:11:09;101457.66;;;12.53;91.38
69058;BME280;56128;37.534;-122.308;2022-07-03T10:13:39;101455.94;;;12.52;92.01
69058;BME280;56128;37.534;-122.308;2022-07-03T10:16:07;101456.06;;;12.50;91.68
69058;BME280;56128;37.534;-122.308;2022-07-03T10:18:36;101450.78;;;12.48;91.42
69058;BME280;56128;37.534;-122.308;2022-07-03T10:21:06;101446.28;;;12.49;91.09
69058;BME280;56128;37.534;-122.308;2022-07-03T10:23:32;101442.66;;;12.50;91.25
69058;BME280;56128;37.534;-122.308;2022-07-03T10:25:59;101443.72;;;12.47;90.86
69058;BME280;56128;37.534;-122.308;2022-07-03T10:28:25;101440.28;;;12.45;91.38
69058;BME280;56128;37.534;-122.308;2022-07-03T10:30:51;101444.34;;;12.51;90.85
69058;BME280;56128;37.534;-122.308;2022-07-03T10:33:18;101452.50;;;12.49;90.59
69058;BME280;56128;37.534;-122.308;2022-07-03T10:35:48;101457.03;;;12.49;90.00
69058;BME280;56128;37.534;-122.308;2022-07-03T10:38:41;101453.38;;;12.50;90.20
69058;BME280;56128;37.534;-122.308;2022-07-03T10:41:36;101451.78;;;12.47;89.98
69058;BME280;56128;37.534;-122.308;2022-07-03T10:44:23;101441.06;;;12.47;89.16
69058;BME280;56128;37.534;-122.308;2022-07-03T10:47:44;101455.44;;;12.46;89.49
69058;BME280;56128;37.534;-122.308;2022-07-03T10:50:15;101449.31;;;12.44;89.46
69058;BME280;56128;37.534;-122.308;2022-07-03T10:52:42;101430.25;;;12.36;89.51
69058;BME280;56128;37.534;-122.308;2022-07-03T10:55:09;101440.63;;;12.41;88.74
69058;BME280;56128;37.534;-122.308;2022-07-03T10:57:37;101436.84;;;12.43;89.11
69058;BME280;56128;37.534;-122.308;2022-07-03T11:00:05;101438.56;;;12.44;88.71
69058;BME280;56128;37.534;-122.308;2022-07-03T11:02:40;101444.56;;;12.48;88.39
69058;BME280;56128;37.534;-122.308;2022-07-03T11:13:11;101433.00;;;12.47;87.70
69058;BME280;56128;37.534;-122.308;2022-07-03T11:25:41;101435.56;;;12.49;89.19
69058;BME280;56128;37.534;-122.308;2022-07-03T11:29:01;101431.16;;;12.48;89.20
69058;BME280;56128;37.534;-122.308;2022-07-03T11:36:23;101419.78;;;12.44;89.88
69058;BME280;56128;37.534;-122.308;2022-07-03T11:41:18;101417.34;;;12.41;90.12
69058;BME280;56128;37.534;-122.308;2022-07-03T11:43:52;101421.94;;;12.39;90.03
69058;BME280;56128;37.534;-122.308;2022-07-03T11:46:18;101423.78;;;12.39;89.84
69058;BME280;56128;37.534;-122.308;2022-07-03T11:48:45;101413.38;;;12.34;90.41
69058;BME280;56128;37.534;-122.308;2022-07-03T11:51:11;101418.50;;;12.37;90.32
69058;BME280;56128;37.534;-122.308;2022-07-03T11:53:38;101416.72;;;12.38;90.80
69058;BME280;56128;37.534;-122.308;2022-07-03T11:56:10;101421.44;;;12.34;91.40
69058;BME280;56128;37.534;-122.308;2022-07-03T11:58:47;101418.00;;;12.32;91.93
69058;BME280;56128;37.534;-122.308;2022-07-03T12:03:53;101414.59;;;12.30;92.13
69058;BME280;56128;37.534;-122.308;2022-07-03T12:06:20;101416.75;;;12.25;92.07
69058;BME280;56128;37.534;-122.308;2022-07-03T12:08:47;101423.72;;;12.27;92.25
69058;BME280;56128;37.534;-122.308;2022-07-03T12:11:15;101416.63;;;12.26;91.98
69058;BME280;56128;37.534;-122.308;2022-07-03T12:13:42;101414.41;;;12.20;92.05
69058;BME280;56128;37.534;-122.308;2022-07-03T12:16:13;101415.88;;;12.24;91.92
69058;BME280;56128;37.534;-122.308;2022-07-03T12:18:48;101421.88;;;12.28;91.97
69058;BME280;56128;37.534;-122.308;2022-07-03T12:21:18;101417.47;;;12.27;91.65
69058;BME280;56128;37.534;-122.308;2022-07-03T12:23:53;101420.81;;;12.30;91.54
69058;BME280;56128;37.534;-122.308;2022-07-03T12:26:35;101419.97;;;12.30;91.97
69058;BME280;56128;37.534;-122.308;2022-07-03T12:29:04;101428.00;;;12.30;92.05
69058;BME280;56128;37.534;-122.308;2022-07-03T12:31:31;101434.09;;;12.32;92.18
69058;BME280;56128;37.534;-122.308;2022-07-03T12:33:59;101428.72;;;12.32;92.01
69058;BME280;56128;37.534;-122.308;2022-07-03T12:36:25;101432.94;;;12.36;92.16
69058;BME280;56128;37.534;-122.308;2022-07-03T12:38:53;101439.47;;;12.32;91.90
69058;BME280;56128;37.534;-122.308;2022-07-03T12:41:20;101439.38;;;12.33;92.23
69058;BME280;56128;37.534;-122.308;2022-07-03T12:43:48;101422.41;;;12.33;92.88
69058;BME280;56128;37.534;-122.308;2022-07-03T12:48:55;101423.03;;;12.37;92.38
69058;BME280;56128;37.534;-122.308;2022-07-03T12:51:45;101416.59;;;12.39;92.64
69058;BME280;56128;37.534;-122.308;2022-07-03T12:54:43;101425.72;;;12.37;92.57
69058;BME280;56128;37.534;-122.308;2022-07-03T12:57:10;101423.16;;;12.35;92.30
69058;BME280;56128;37.534;-122.308;2022-07-03T13:00:21;101431.72;;;12.40;92.21
69058;BME280;56128;37.534;-122.308;2022-07-03T13:02:48;101434.53;;;12.39;92.01
69058;BME280;56128;37.534;-122.308;2022-07-03T13:07:51;101433.53;;;12.40;91.22
69058;BME280;56128;37.534;-122.308;2022-07-03T13:10:21;101434.41;;;12.40;91.39
69058;BME280;56128;37.534;-122.308;2022-07-03T13:12:53;101434.06;;;12.45;91.35
69058;BME280;56128;37.534;-122.308;2022-07-03T13:15:20;101431.28;;;12.46;90.91
69058;BME280;56128;37.534;-122.308;2022-07-03T13:20:29;101436.19;;;12.53;90.83
69058;BME280;56128;37.534;-122.308;2022-07-03T13:23:01;101442.41;;;12.53;90.47
69058;BME280;56128;37.534;-122.308;2022-07-03T13:25:28;101440.59;;;12.54;90.39
69058;BME280;56128;37.534;-122.308;2022-07-03T13:28:12;101449.03;;;12.60;90.24
69058;BME280;56128;37.534;-122.308;2022-07-03T13:30:40;101455.50;;;12.58;90.10
69058;BME280;56128;37.534;-122.308;2022-07-03T13:33:08;101452.47;;;12.62;90.08
69058;BME280;56128;37.534;-122.308;2022-07-03T13:35:35;101447.00;;;12.64;89.88